sensor_id;sensor_type;location;lat;lon;timestamp;P1;durP1;ratioP1;P2;durP2;ratioP2
62102;SDS011;48077;48.104;11.702;2023-03-19T00:02:12;33.67;;;30.52;;
62102;SDS011;48077;48.104;11.702;2023-03-19T00:04:35;35.65;;;32.55;;
62102;SDS011;48077;48.104;11.702;2023-03-19T00:06:59;37.05;;;33.72;;
62102;SDS011;48077;48.104;11.702;2023-03-19T00:09:23;38.33;;;35.13;;
62102;SDS011;48077;48.104;11.702;2023-03-19T00:11:47;39.53;;;36.08;;
62102;SDS011;48077;48.104;11.702;2023-03-19T00:14:10;38.92;;;35.47;;
62102;SDS011;48077;48.104;11.702;2023-03-19T00:16:34;37.38;;;34.20;;
62102;SDS011;48077;48.104;11.702;2023-03-19T00:18:58;32.67;;;30.02;;
62102;SDS011;48077;48.104;11.702;2023-03-19T00:21:21;31.85;;;28.67;;
62102;SDS011;48077;48.104;11.702;2023-03-19T00:23:45;32.47;;;29.63;;
62102;SDS011;48077;48.104;11.702;2023-03-19T00:26:09;33.53;;;30.25;;
62102;SDS011;48077;48.104;11.702;2023-03-19T00:28:32;32.00;;;29.08;;
62102;SDS011;48077;48.104;11.702;2023-03-19T00:30:56;35.08;;;32.00;;
62102;SDS011;48077;48.104;11.702;2023-03-19T00:33:19;33.00;;;30.40;;
62102;SDS011;48077;48.104;11.702;2023-03-19T00:35:45;34.47;;;31.50;;
62102;SDS011;48077;48.104;11.702;2023-03-19T00:38:08;34.60;;;31.38;;
62102;SDS011;48077;48.104;11.702;2023-03-19T00:40:31;35.22;;;32.28;;
62102;SDS011;48077;48.104;11.702;2023-03-19T00:42:55;34.92;;;31.88;;
62102;SDS011;48077;48.104;11.702;2023-03-19T00:45:18;36.15;;;32.88;;
62102;SDS011;48077;48.104;11.702;2023-03-19T00:47:42;38.95;;;35.67;;
62102;SDS011;48077;48.104;11.702;2023-03-19T00:50:08;40.83;;;37.28;;
62102;SDS011;48077;48.104;11.702;2023-03-19T00:52:32;36.20;;;33.25;;
62102;SDS011;48077;48.104;11.702;2023-03-19T00:54:55;36.15;;;32.72;;
62102;SDS011;48077;48.104;11.702;2023-03-19T00:57:19;38.17;;;34.72;;
62102;SDS011;48077;48.104;11.702;2023-03-19T00:59:42;36.97;;;33.67;;
62102;SDS011;48077;48.104;11.702;2023-03-19T01:02:06;36.92;;;33.53;;
62102;SDS011;48077;48.104;11.702;2023-03-19T01:04:29;40.28;;;36.47;;
62102;SDS011;48077;48.104;11.702;2023-03-19T01:07:00;39.95;;;36.17;;
62102;SDS011;48077;48.104;11.702;2023-03-19T01:09:25;37.63;;;34.47;;
62102;SDS011;48077;48.104;11.702;2023-03-19T01:11:49;41.03;;;37.35;;
62102;SDS011;48077;48.104;11.702;2023-03-19T01:14:14;40.72;;;37.10;;
62102;SDS011;48077;48.104;11.702;2023-03-19T01:16:38;43.65;;;39.42;;
62102;SDS011;48077;48.104;11.702;2023-03-19T01:19:01;41.33;;;37.83;;
62102;SDS011;48077;48.104;11.702;2023-03-19T01:21:25;41.80;;;38.30;;
62102;SDS011;48077;48.104;11.702;2023-03-19T01:23:52;44.78;;;40.85;;
62102;SDS011;48077;48.104;11.702;2023-03-19T01:26:16;44.28;;;40.33;;
62102;SDS011;48077;48.104;11.702;2023-03-19T01:28:40;44.67;;;40.80;;
62102;SDS011;48077;48.104;11.702;2023-03-19T01:31:06;44.40;;;40.70;;
62102;SDS011;48077;48.104;11.702;2023-03-19T01:33:31;46.03;;;42.33;;
62102;SDS011;48077;48.104;11.702;2023-03-19T01:35:55;44.92;;;41.30;;
62102;SDS011;48077;48.104;11.702;2023-03-19T01:38:19;40.55;;;37.17;;
62102;SDS011;48077;48.104;11.702;2023-03-19T01:40:44;42.95;;;39.30;;
62102;SDS011;48077;48.104;11.702;2023-03-19T01:43:13;45.22;;;41.33;;
62102;SDS011;48077;48.104;11.702;2023-03-19T01:45:45;48.72;;;44.42;;
62102;SDS011;48077;48.104;11.702;2023-03-19T01:48:19;47.13;;;43.08;;
62102;SDS011;48077;48.104;11.702;2023-03-19T01:50:55;51.53;;;47.15;;
62102;SDS011;48077;48.104;11.702;2023-03-19T01:53:22;48.47;;;44.33;;
62102;SDS011;48077;48.104;11.702;2023-03-19T01:55:48;45.23;;;41.50;;
62102;SDS011;48077;48.104;11.702;2023-03-19T01:58:12;50.58;;;46.10;;
62102;SDS011;48077;48.104;11.702;2023-03-19T02:00:36;49.20;;;44.90;;
62102;SDS011;48077;48.104;11.702;2023-03-19T02:03:01;48.22;;;44.20;;
62102;SDS011;48077;48.104;11.702;2023-03-19T02:05:25;46.85;;;42.83;;
62102;SDS011;48077;48.104;11.702;2023-03-19T02:07:53;42.28;;;38.97;;
62102;SDS011;48077;48.104;11.702;2023-03-19T02:10:20;45.15;;;41.55;;
62102;SDS011;48077;48.104;11.702;2023-03-19T02:12:44;44.95;;;41.20;;
62102;SDS011;48077;48.104;11.702;2023-03-19T02:15:08;47.65;;;43.60;;
62102;SDS011;48077;48.104;11.702;2023-03-19T02:17:32;41.72;;;38.17;;
62102;SDS011;48077;48.104;11.702;2023-03-19T02:22:20;44.75;;;40.92;;
62102;SDS011;48077;48.104;11.702;2023-03-19T02:24:52;45.83;;;42.13;;
62102;SDS011;48077;48.104;11.702;2023-03-19T02:27:17;49.72;;;45.55;;
62102;SDS011;48077;48.104;11.702;2023-03-19T02:29:41;48.50;;;44.35;;
62102;SDS011;48077;48.104;11.702;2023-03-19T02:32:05;49.22;;;45.28;;
62102;SDS011;48077;48.104;11.702;2023-03-19T02:34:32;49.30;;;44.85;;
62102;SDS011;48077;48.104;11.702;2023-03-19T02:36:59;51.65;;;47.33;;
62102;SDS011;48077;48.104;11.702;2023-03-19T02:39:31;50.15;;;46.08;;
62102;SDS011;48077;48.104;11.702;2023-03-19T02:42:17;55.33;;;50.78;;
62102;SDS011;48077;48.104;11.702;2023-03-19T02:44:43;50.33;;;46.05;;
62102;SDS011;48077;48.104;11.702;2023-03-19T02:47:08;49.35;;;44.90;;
62102;SDS011;48077;48.104;11.702;2023-03-19T02:49:31;48.15;;;44.20;;
62102;SDS011;48077;48.104;11.702;2023-03-19T02:51:58;48.50;;;44.20;;
62102;SDS011;48077;48.104;11.702;2023-03-19T02:54:21;47.35;;;43.58;;
62102;SDS011;48077;48.104;11.702;2023-03-19T02:56:45;45.42;;;41.75;;
62102;SDS011;48077;48.104;11.702;2023-03-19T02:59:08;45.85;;;42.10;;
62102;SDS011;48077;48.104;11.702;2023-03-19T03:01:32;47.10;;;42.90;;
62102;SDS011;48077;48.104;11.702;2023-03-19T03:03:55;48.97;;;44.78;;
62102;SDS011;48077;48.104;11.702;2023-03-19T03:06:18;48.72;;;44.28;;
62102;SDS011;48077;48.104;11.702;2023-03-19T03:08:42;47.80;;;43.95;;
62102;SDS011;48077;48.104;11.702;2023-03-19T03:11:06;45.72;;;41.78;;
62102;SDS011;48077;48.104;11.702;2023-03-19T03:13:29;47.35;;;43.08;;
62102;SDS011;48077;48.104;11.702;2023-03-19T03:15:53;48.20;;;44.25;;
62102;SDS011;48077;48.104;11.702;2023-03-19T03:18:19;47.72;;;43.60;;
62102;SDS011;48077;48.104;11.702;2023-03-19T03:20:42;45.15;;;41.40;;
62102;SDS011;48077;48.104;11.702;2023-03-19T03:23:08;52.25;;;46.47;;
62102;SDS011;48077;48.104;11.702;2023-03-19T03:25:31;47.33;;;43.67;;
62102;SDS011;48077;48.104;11.702;2023-03-19T03:27:55;47.67;;;43.85;;
62102;SDS011;48077;48.104;11.702;2023-03-19T03:30:18;55.75;;;50.30;;
62102;SDS011;48077;48.104;11.702;2023-03-19T03:32:49;49.53;;;45.47;;
62102;SDS011;48077;48.104;11.702;2023-03-19T03:35:12;49.25;;;45.00;;
62102;SDS011;48077;48.104;11.702;2023-03-19T03:37:46;49.88;;;45.78;;
62102;SDS011;48077;48.104;11.702;2023-03-19T03:40:13;51.65;;;47.13;;
62102;SDS011;48077;48.104;11.702;2023-03-19T03:42:39;48.87;;;45.00;;
62102;SDS011;48077;48.104;11.702;2023-03-19T03:45:02;47.58;;;43.75;;
62102;SDS011;48077;48.104;11.702;2023-03-19T03:47:26;48.15;;;44.22;;
62102;SDS011;48077;48.104;11.702;2023-03-19T03:49:50;46.85;;;43.08;;
62102;SDS011;48077;48.104;11.702;2023-03-19T03:52:13;49.97;;;45.92;;
62102;SDS011;48077;48.104;11.702;2023-03-19T03:54:37;48.53;;;44.67;;
62102;SDS011;48077;48.104;11.702;2023-03-19T03:57:01;45.63;;;42.08;;
62102;SDS011;48077;48.104;11.702;2023-03-19T03:59:24;48.38;;;44.47;;
62102;SDS011;48077;48.104;11.702;2023-03-19T04:01:48;47.92;;;44.10;;
62102;SDS011;48077;48.104;11.702;2023-03-19T04:04:11;50.67;;;46.67;;
62102;SDS011;48077;48.104;11.702;2023-03-19T04:06:35;48.97;;;44.97;;
62102;SDS011;48077;48.104;11.702;2023-03-19T04:08:58;47.10;;;43.22;;
62102;SDS011;48077;48.104;11.702;2023-03-19T04:11:21;49.58;;;45.67;;
62102;SDS011;48077;48.104;11.702;2023-03-19T04:13:45;48.88;;;44.85;;
62102;SDS011;48077;48.104;11.702;2023-03-19T04:16:08;51.65;;;47.00;;
62102;SDS011;48077;48.104;11.702;2023-03-19T04:18:33;49.83;;;45.72;;
62102;SDS011;48077;48.104;11.702;2023-03-19T04:20:56;49.10;;;45.15;;
62102;SDS011;48077;48.104;11.702;2023-03-19T04:23:20;51.38;;;47.03;;
62102;SDS011;48077;48.104;11.702;2023-03-19T04:25:43;51.58;;;47.35;;
62102;SDS011;48077;48.104;11.702;2023-03-19T04:28:06;48.60;;;44.72;;
62102;SDS011;48077;48.104;11.702;2023-03-19T04:30:31;46.40;;;42.67;;
62102;SDS011;48077;48.104;11.702;2023-03-19T04:32:54;46.60;;;42.78;;
62102;SDS011;48077;48.104;11.702;2023-03-19T04:35:18;47.60;;;43.60;;
62102;SDS011;48077;48.104;11.702;2023-03-19T04:37:41;49.72;;;45.53;;
62102;SDS011;48077;48.104;11.702;2023-03-19T04:40:10;50.83;;;45.97;;
62102;SDS011;48077;48.104;11.702;2023-03-19T04:42:34;47.58;;;43.83;;
62102;SDS011;48077;48.104;11.702;2023-03-19T04:44:57;46.40;;;42.33;;
62102;SDS011;48077;48.104;11.702;2023-03-19T04:47:21;46.50;;;42.42;;
62102;SDS011;48077;48.104;11.702;2023-03-19T04:49:44;44.45;;;40.90;;
62102;SDS011;48077;48.104;11.702;2023-03-19T04:52:07;45.05;;;41.33;;
62102;SDS011;48077;48.104;11.702;2023-03-19T04:54:31;44.30;;;40.88;;
62102;SDS011;48077;48.104;11.702;2023-03-19T04:56:54;46.53;;;42.78;;
62102;SDS011;48077;48.104;11.702;2023-03-19T04:59:18;43.72;;;40.08;;
62102;SDS011;48077;48.104;11.702;2023-03-19T05:01:41;44.58;;;41.05;;
62102;SDS011;48077;48.104;11.702;2023-03-19T05:04:05;41.30;;;37.90;;
62102;SDS011;48077;48.104;11.702;2023-03-19T05:06:29;41.28;;;37.97;;
62102;SDS011;48077;48.104;11.702;2023-03-19T05:08:54;39.33;;;36.22;;
62102;SDS011;48077;48.104;11.702;2023-03-19T05:11:17;40.83;;;37.38;;
62102;SDS011;48077;48.104;11.702;2023-03-19T05:13:41;40.75;;;37.33;;
62102;SDS011;48077;48.104;11.702;2023-03-19T05:16:04;37.60;;;34.83;;
62102;SDS011;48077;48.104;11.702;2023-03-19T05:18:30;41.40;;;38.03;;
62102;SDS011;48077;48.104;11.702;2023-03-19T05:20:56;38.97;;;35.65;;
62102;SDS011;48077;48.104;11.702;2023-03-19T05:23:20;39.30;;;35.72;;
62102;SDS011;48077;48.104;11.702;2023-03-19T05:25:45;37.95;;;34.88;;
62102;SDS011;48077;48.104;11.702;2023-03-19T05:28:09;38.25;;;34.70;;
62102;SDS011;48077;48.104;11.702;2023-03-19T05:30:33;37.78;;;34.60;;
62102;SDS011;48077;48.104;11.702;2023-03-19T05:32:57;38.47;;;35.45;;
62102;SDS011;48077;48.104;11.702;2023-03-19T05:35:20;38.65;;;35.50;;
62102;SDS011;48077;48.104;11.702;2023-03-19T05:37:44;39.05;;;35.75;;
62102;SDS011;48077;48.104;11.702;2023-03-19T05:40:10;36.30;;;33.20;;
62102;SDS011;48077;48.104;11.702;2023-03-19T05:42:34;38.28;;;35.28;;
62102;SDS011;48077;48.104;11.702;2023-03-19T05:44:57;37.22;;;34.25;;
62102;SDS011;48077;48.104;11.702;2023-03-19T05:47:21;37.05;;;34.20;;
62102;SDS011;48077;48.104;11.702;2023-03-19T05:49:47;34.25;;;31.65;;
62102;SDS011;48077;48.104;11.702;2023-03-19T05:52:10;34.63;;;31.80;;
62102;SDS011;48077;48.104;11.702;2023-03-19T05:54:33;34.78;;;31.95;;
62102;SDS011;48077;48.104;11.702;2023-03-19T05:56:57;31.92;;;29.45;;
62102;SDS011;48077;48.104;11.702;2023-03-19T05:59:20;34.60;;;31.75;;
62102;SDS011;48077;48.104;11.702;2023-03-19T06:01:44;32.38;;;29.65;;
62102;SDS011;48077;48.104;11.702;2023-03-19T06:04:09;30.92;;;28.38;;
62102;SDS011;48077;48.104;11.702;2023-03-19T06:06:33;31.27;;;28.50;;
62102;SDS011;48077;48.104;11.702;2023-03-19T06:08:56;28.88;;;26.52;;
62102;SDS011;48077;48.104;11.702;2023-03-19T06:11:20;29.33;;;26.25;;
62102;SDS011;48077;48.104;11.702;2023-03-19T06:13:43;24.63;;;22.48;;
62102;SDS011;48077;48.104;11.702;2023-03-19T06:16:08;26.58;;;24.33;;
62102;SDS011;48077;48.104;11.702;2023-03-19T06:18:31;26.98;;;24.52;;
62102;SDS011;48077;48.104;11.702;2023-03-19T06:20:57;24.90;;;22.67;;
62102;SDS011;48077;48.104;11.702;2023-03-19T06:23:23;23.35;;;21.10;;
62102;SDS011;48077;48.104;11.702;2023-03-19T06:25:46;21.10;;;18.85;;
62102;SDS011;48077;48.104;11.702;2023-03-19T06:28:09;22.17;;;19.83;;
62102;SDS011;48077;48.104;11.702;2023-03-19T06:30:35;20.73;;;18.65;;
62102;SDS011;48077;48.104;11.702;2023-03-19T06:32:59;19.30;;;17.42;;
62102;SDS011;48077;48.104;11.702;2023-03-19T06:35:22;16.25;;;14.70;;
62102;SDS011;48077;48.104;11.702;2023-03-19T06:37:46;18.92;;;16.90;;
62102;SDS011;48077;48.104;11.702;2023-03-19T06:40:09;17.13;;;15.30;;
62102;SDS011;48077;48.104;11.702;2023-03-19T06:42:33;17.95;;;15.93;;
62102;SDS011;48077;48.104;11.702;2023-03-19T06:44:56;16.58;;;14.90;;
62102;SDS011;48077;48.104;11.702;2023-03-19T06:47:19;17.88;;;13.77;;
62102;SDS011;48077;48.104;11.702;2023-03-19T06:49:43;17.45;;;12.90;;
62102;SDS011;48077;48.104;11.702;2023-03-19T06:52:06;15.35;;;12.90;;
62102;SDS011;48077;48.104;11.702;2023-03-19T06:54:30;15.45;;;13.55;;
62102;SDS011;48077;48.104;11.702;2023-03-19T06:56:54;14.20;;;11.98;;
62102;SDS011;48077;48.104;11.702;2023-03-19T06:59:17;15.88;;;11.50;;
62102;SDS011;48077;48.104;11.702;2023-03-19T07:01:41;14.98;;;10.68;;
62102;SDS011;48077;48.104;11.702;2023-03-19T07:04:04;11.73;;;10.30;;
62102;SDS011;48077;48.104;11.702;2023-03-19T07:06:28;13.15;;;10.55;;
62102;SDS011;48077;48.104;11.702;2023-03-19T07:08:54;14.13;;;10.80;;
62102;SDS011;48077;48.104;11.702;2023-03-19T07:11:18;16.70;;;12.05;;
62102;SDS011;48077;48.104;11.702;2023-03-19T07:13:41;16.98;;;10.05;;
62102;SDS011;48077;48.104;11.702;2023-03-19T07:16:05;14.45;;;10.80;;
62102;SDS011;48077;48.104;11.702;2023-03-19T07:18:29;13.85;;;9.35;;
62102;SDS011;48077;48.104;11.702;2023-03-19T07:20:52;17.92;;;10.70;;
62102;SDS011;48077;48.104;11.702;2023-03-19T07:23:15;15.25;;;10.07;;
62102;SDS011;48077;48.104;11.702;2023-03-19T07:25:39;11.48;;;8.82;;
62102;SDS011;48077;48.104;11.702;2023-03-19T07:28:03;12.85;;;9.50;;
62102;SDS011;48077;48.104;11.702;2023-03-19T07:30:27;17.77;;;9.73;;
62102;SDS011;48077;48.104;11.702;2023-03-19T07:32:50;11.73;;;7.82;;
62102;SDS011;48077;48.104;11.702;2023-03-19T07:35:16;13.20;;;8.18;;
62102;SDS011;48077;48.104;11.702;2023-03-19T07:37:40;13.07;;;7.88;;
62102;SDS011;48077;48.104;11.702;2023-03-19T07:40:04;13.07;;;7.55;;
62102;SDS011;48077;48.104;11.702;2023-03-19T07:42:29;12.90;;;7.85;;
62102;SDS011;48077;48.104;11.702;2023-03-19T07:44:53;12.68;;;8.35;;
62102;SDS011;48077;48.104;11.702;2023-03-19T07:47:16;13.02;;;8.23;;
62102;SDS011;48077;48.104;11.702;2023-03-19T07:49:39;10.93;;;6.53;;
62102;SDS011;48077;48.104;11.702;2023-03-19T07:52:03;10.88;;;5.85;;
62102;SDS011;48077;48.104;11.702;2023-03-19T07:54:26;13.15;;;6.18;;
62102;SDS011;48077;48.104;11.702;2023-03-19T07:56:49;11.45;;;7.47;;
62102;SDS011;48077;48.104;11.702;2023-03-19T07:59:13;16.10;;;6.60;;
62102;SDS011;48077;48.104;11.702;2023-03-19T08:01:36;15.88;;;7.82;;
62102;SDS011;48077;48.104;11.702;2023-03-19T08:04:00;12.90;;;7.85;;
62102;SDS011;48077;48.104;11.702;2023-03-19T08:06:27;9.43;;;5.97;;
62102;SDS011;48077;48.104;11.702;2023-03-19T08:08:51;13.63;;;7.07;;
62102;SDS011;48077;48.104;11.702;2023-03-19T08:11:15;11.10;;;6.03;;
62102;SDS011;48077;48.104;11.702;2023-03-19T08:13:38;14.93;;;5.68;;
62102;SDS011;48077;48.104;11.702;2023-03-19T08:16:01;9.07;;;5.82;;
62102;SDS011;48077;48.104;11.702;2023-03-19T08:18:25;12.27;;;4.97;;
62102;SDS011;48077;48.104;11.702;2023-03-19T08:20:49;9.65;;;5.38;;
62102;SDS011;48077;48.104;11.702;2023-03-19T08:23:15;11.80;;;5.55;;
62102;SDS011;48077;48.104;11.702;2023-03-19T08:25:46;12.23;;;6.35;;
62102;SDS011;48077;48.104;11.702;2023-03-19T08:28:10;10.07;;;6.30;;
62102;SDS011;48077;48.104;11.702;2023-03-19T08:30:35;7.97;;;4.85;;
62102;SDS011;48077;48.104;11.702;2023-03-19T08:32:59;11.57;;;5.60;;
62102;SDS011;48077;48.104;11.702;2023-03-19T08:35:22;9.38;;;4.82;;
62102;SDS011;48077;48.104;11.702;2023-03-19T08:37:48;9.15;;;5.55;;
62102;SDS011;48077;48.104;11.702;2023-03-19T08:40:12;9.40;;;5.13;;
62102;SDS011;48077;48.104;11.702;2023-03-19T08:42:35;9.02;;;4.53;;
62102;SDS011;48077;48.104;11.702;2023-03-19T08:45:03;7.75;;;5.10;;
62102;SDS011;48077;48.104;11.702;2023-03-19T08:47:27;8.27;;;4.50;;
62102;SDS011;48077;48.104;11.702;2023-03-19T08:49:51;10.82;;;5.43;;
62102;SDS011;48077;48.104;11.702;2023-03-19T08:52:14;7.70;;;5.32;;
62102;SDS011;48077;48.104;11.702;2023-03-19T08:54:38;8.57;;;4.00;;
62102;SDS011;48077;48.104;11.702;2023-03-19T08:57:01;9.93;;;4.22;;
62102;SDS011;48077;48.104;11.702;2023-03-19T08:59:25;8.85;;;4.88;;
62102;SDS011;48077;48.104;11.702;2023-03-19T09:01:50;6.13;;;3.67;;
62102;SDS011;48077;48.104;11.702;2023-03-19T09:04:16;12.20;;;5.30;;
62102;SDS011;48077;48.104;11.702;2023-03-19T09:06:39;6.13;;;4.18;;
62102;SDS011;48077;48.104;11.702;2023-03-19T09:09:05;7.18;;;4.25;;
62102;SDS011;48077;48.104;11.702;2023-03-19T09:11:29;6.35;;;3.83;;
62102;SDS011;48077;48.104;11.702;2023-03-19T09:13:52;7.53;;;4.30;;
62102;SDS011;48077;48.104;11.702;2023-03-19T09:16:16;7.35;;;4.82;;
62102;SDS011;48077;48.104;11.702;2023-03-19T09:18:40;7.78;;;4.03;;
62102;SDS011;48077;48.104;11.702;2023-03-19T09:21:04;8.52;;;4.03;;
62102;SDS011;48077;48.104;11.702;2023-03-19T09:23:28;6.28;;;3.83;;
62102;SDS011;48077;48.104;11.702;2023-03-19T09:25:51;6.20;;;3.25;;
62102;SDS011;48077;48.104;11.702;2023-03-19T09:28:14;9.15;;;4.00;;
62102;SDS011;48077;48.104;11.702;2023-03-19T09:30:38;8.52;;;3.72;;
62102;SDS011;48077;48.104;11.702;2023-03-19T09:33:02;9.05;;;4.32;;
62102;SDS011;48077;48.104;11.702;2023-03-19T09:35:26;7.55;;;3.65;;
62102;SDS011;48077;48.104;11.702;2023-03-19T09:37:53;6.93;;;3.65;;
62102;SDS011;48077;48.104;11.702;2023-03-19T09:40:20;5.47;;;3.15;;
62102;SDS011;48077;48.104;11.702;2023-03-19T09:42:57;10.70;;;4.47;;
62102;SDS011;48077;48.104;11.702;2023-03-19T09:45:40;8.27;;;4.22;;
62102;SDS011;48077;48.104;11.702;2023-03-19T09:48:04;7.90;;;3.83;;
62102;SDS011;48077;48.104;11.702;2023-03-19T09:50:34;6.25;;;3.00;;
62102;SDS011;48077;48.104;11.702;2023-03-19T09:55:37;7.97;;;3.22;;
62102;SDS011;48077;48.104;11.702;2023-03-19T09:58:09;9.18;;;3.55;;
62102;SDS011;48077;48.104;11.702;2023-03-19T10:00:36;6.63;;;3.30;;
62102;SDS011;48077;48.104;11.702;2023-03-19T10:05:51;4.82;;;2.40;;
62102;SDS011;48077;48.104;11.702;2023-03-19T10:11:17;9.23;;;3.13;;
62102;SDS011;48077;48.104;11.702;2023-03-19T10:16:43;7.57;;;3.42;;
62102;SDS011;48077;48.104;11.702;2023-03-19T10:19:12;6.88;;;3.00;;
62102;SDS011;48077;48.104;11.702;2023-03-19T10:21:44;6.20;;;3.70;;
62102;SDS011;48077;48.104;11.702;2023-03-19T10:24:53;7.88;;;3.65;;
62102;SDS011;48077;48.104;11.702;2023-03-19T10:27:17;7.07;;;3.78;;
62102;SDS011;48077;48.104;11.702;2023-03-19T10:29:42;9.70;;;3.95;;
62102;SDS011;48077;48.104;11.702;2023-03-19T10:32:12;8.65;;;3.20;;
62102;SDS011;48077;48.104;11.702;2023-03-19T10:34:43;7.28;;;3.38;;
62102;SDS011;48077;48.104;11.702;2023-03-19T10:37:16;8.40;;;3.65;;
62102;SDS011;48077;48.104;11.702;2023-03-19T10:39:43;5.38;;;2.97;;
62102;SDS011;48077;48.104;11.702;2023-03-19T10:44:50;5.47;;;2.92;;
62102;SDS011;48077;48.104;11.702;2023-03-19T10:47:18;7.75;;;3.22;;
62102;SDS011;48077;48.104;11.702;2023-03-19T10:49:48;9.40;;;3.47;;
62102;SDS011;48077;48.104;11.702;2023-03-19T10:52:20;8.25;;;3.72;;
62102;SDS011;48077;48.104;11.702;2023-03-19T10:54:47;9.48;;;3.33;;
62102;SDS011;48077;48.104;11.702;2023-03-19T10:57:27;7.82;;;2.95;;
62102;SDS011;48077;48.104;11.702;2023-03-19T10:59:54;5.63;;;3.00;;
62102;SDS011;48077;48.104;11.702;2023-03-19T11:02:19;9.57;;;3.75;;
62102;SDS011;48077;48.104;11.702;2023-03-19T11:04:45;7.10;;;2.55;;
62102;SDS011;48077;48.104;11.702;2023-03-19T11:07:12;4.88;;;2.17;;
62102;SDS011;48077;48.104;11.702;2023-03-19T11:09:46;6.55;;;2.67;;
62102;SDS011;48077;48.104;11.702;2023-03-19T11:14:40;6.47;;;2.53;;
62102;SDS011;48077;48.104;11.702;2023-03-19T11:17:23;7.78;;;3.30;;
62102;SDS011;48077;48.104;11.702;2023-03-19T11:19:51;6.65;;;2.90;;
62102;SDS011;48077;48.104;11.702;2023-03-19T11:24:55;6.65;;;3.00;;
62102;SDS011;48077;48.104;11.702;2023-03-19T11:27:29;8.52;;;2.65;;
62102;SDS011;48077;48.104;11.702;2023-03-19T11:29:59;8.52;;;3.15;;
62102;SDS011;48077;48.104;11.702;2023-03-19T11:35:24;10.10;;;2.72;;
62102;SDS011;48077;48.104;11.702;2023-03-19T11:37:55;4.30;;;2.15;;
62102;SDS011;48077;48.104;11.702;2023-03-19T11:40:29;5.95;;;2.38;;
62102;SDS011;48077;48.104;11.702;2023-03-19T11:48:38;7.35;;;2.67;;
62102;SDS011;48077;48.104;11.702;2023-03-19T11:53:52;6.35;;;3.30;;
62102;SDS011;48077;48.104;11.702;2023-03-19T12:02:11;5.45;;;2.55;;
62102;SDS011;48077;48.104;11.702;2023-03-19T12:13:28;9.38;;;3.58;;
62102;SDS011;48077;48.104;11.702;2023-03-19T12:16:08;7.65;;;2.53;;
62102;SDS011;48077;48.104;11.702;2023-03-19T12:22:24;6.95;;;2.90;;
62102;SDS011;48077;48.104;11.702;2023-03-19T12:29:56;3.80;;;2.00;;
62102;SDS011;48077;48.104;11.702;2023-03-19T12:35:21;6.28;;;2.53;;
62102;SDS011;48077;48.104;11.702;2023-03-19T12:37:57;6.00;;;2.28;;
62102;SDS011;48077;48.104;11.702;2023-03-19T12:40:29;6.05;;;2.35;;
62102;SDS011;48077;48.104;11.702;2023-03-19T12:42:57;4.65;;;2.22;;
62102;SDS011;48077;48.104;11.702;2023-03-19T12:45:29;8.60;;;2.70;;
62102;SDS011;48077;48.104;11.702;2023-03-19T12:47:59;5.28;;;2.40;;
62102;SDS011;48077;48.104;11.702;2023-03-19T12:50:38;7.57;;;2.50;;
62102;SDS011;48077;48.104;11.702;2023-03-19T12:53:06;5.00;;;1.83;;
62102;SDS011;48077;48.104;11.702;2023-03-19T12:55:38;6.78;;;3.22;;
62102;SDS011;48077;48.104;11.702;2023-03-19T13:03:33;7.22;;;3.10;;
62102;SDS011;48077;48.104;11.702;2023-03-19T13:14:46;7.10;;;2.65;;
62102;SDS011;48077;48.104;11.702;2023-03-19T13:17:19;8.10;;;2.67;;
62102;SDS011;48077;48.104;11.702;2023-03-19T13:22:43;4.80;;;2.28;;
62102;SDS011;48077;48.104;11.702;2023-03-19T13:25:15;7.72;;;2.75;;
62102;SDS011;48077;48.104;11.702;2023-03-19T13:27:53;7.60;;;2.72;;
62102;SDS011;48077;48.104;11.702;2023-03-19T13:30:17;5.70;;;2.22;;
62102;SDS011;48077;48.104;11.702;2023-03-19T13:32:51;6.30;;;2.35;;
62102;SDS011;48077;48.104;11.702;2023-03-19T13:35:26;7.93;;;2.40;;
62102;SDS011;48077;48.104;11.702;2023-03-19T13:37:53;5.20;;;1.98;;
62102;SDS011;48077;48.104;11.702;2023-03-19T13:40:48;7.65;;;2.85;;
62102;SDS011;48077;48.104;11.702;2023-03-19T13:45:52;7.38;;;2.15;;
62102;SDS011;48077;48.104;11.702;2023-03-19T13:51:01;6.50;;;2.33;;
62102;SDS011;48077;48.104;11.702;2023-03-19T13:55:51;5.72;;;2.30;;
62102;SDS011;48077;48.104;11.702;2023-03-19T13:58:18;5.82;;;2.53;;
62102;SDS011;48077;48.104;11.702;2023-03-19T14:01:05;8.67;;;2.20;;
62102;SDS011;48077;48.104;11.702;2023-03-19T14:03:32;7.07;;;2.20;;
62102;SDS011;48077;48.104;11.702;2023-03-19T14:05:59;6.85;;;2.40;;
62102;SDS011;48077;48.104;11.702;2023-03-19T14:08:43;6.00;;;2.38;;
62102;SDS011;48077;48.104;11.702;2023-03-19T14:11:10;5.95;;;2.58;;
62102;SDS011;48077;48.104;11.702;2023-03-19T14:13:46;8.98;;;2.50;;
62102;SDS011;48077;48.104;11.702;2023-03-19T14:18:44;4.10;;;1.73;;
62102;SDS011;48077;48.104;11.702;2023-03-19T14:21:08;4.53;;;1.65;;
62102;SDS011;48077;48.104;11.702;2023-03-19T14:23:37;7.22;;;2.40;;
62102;SDS011;48077;48.104;11.702;2023-03-19T14:26:04;5.65;;;2.17;;
62102;SDS011;48077;48.104;11.702;2023-03-19T14:28:33;4.05;;;1.98;;
62102;SDS011;48077;48.104;11.702;2023-03-19T14:31:18;4.13;;;2.05;;
62102;SDS011;48077;48.104;11.702;2023-03-19T14:33:49;5.85;;;2.10;;
62102;SDS011;48077;48.104;11.702;2023-03-19T14:36:17;5.45;;;2.15;;
62102;SDS011;48077;48.104;11.702;2023-03-19T14:38:55;6.35;;;2.55;;
62102;SDS011;48077;48.104;11.702;2023-03-19T14:41:22;6.93;;;2.42;;
62102;SDS011;48077;48.104;11.702;2023-03-19T14:43:54;4.93;;;2.03;;
62102;SDS011;48077;48.104;11.702;2023-03-19T14:46:23;5.20;;;2.10;;
62102;SDS011;48077;48.104;11.702;2023-03-19T14:49:19;9.30;;;3.00;;
62102;SDS011;48077;48.104;11.702;2023-03-19T14:52:07;7.30;;;2.80;;
62102;SDS011;48077;48.104;11.702;2023-03-19T14:55:00;5.40;;;2.58;;
62102;SDS011;48077;48.104;11.702;2023-03-19T14:57:26;5.68;;;2.30;;
62102;SDS011;48077;48.104;11.702;2023-03-19T14:59:52;8.95;;;2.90;;
62102;SDS011;48077;48.104;11.702;2023-03-19T15:05:24;6.07;;;2.42;;
62102;SDS011;48077;48.104;11.702;2023-03-19T15:07:53;12.07;;;5.28;;
62102;SDS011;48077;48.104;11.702;2023-03-19T15:10:21;8.27;;;3.75;;
62102;SDS011;48077;48.104;11.702;2023-03-19T15:16:08;7.22;;;3.10;;
62102;SDS011;48077;48.104;11.702;2023-03-19T15:18:44;8.13;;;2.90;;
62102;SDS011;48077;48.104;11.702;2023-03-19T15:21:07;8.75;;;2.85;;
62102;SDS011;48077;48.104;11.702;2023-03-19T15:23:31;5.30;;;2.65;;
62102;SDS011;48077;48.104;11.702;2023-03-19T15:25:58;5.05;;;2.20;;
62102;SDS011;48077;48.104;11.702;2023-03-19T15:28:24;4.40;;;1.70;;
62102;SDS011;48077;48.104;11.702;2023-03-19T15:31:09;7.35;;;2.53;;
62102;SDS011;48077;48.104;11.702;2023-03-19T15:33:36;3.72;;;1.73;;
62102;SDS011;48077;48.104;11.702;2023-03-19T15:36:23;8.65;;;1.75;;
62102;SDS011;48077;48.104;11.702;2023-03-19T15:41:24;4.60;;;1.80;;
62102;SDS011;48077;48.104;11.702;2023-03-19T15:43:50;5.43;;;1.98;;
62102;SDS011;48077;48.104;11.702;2023-03-19T15:46:15;6.00;;;1.85;;
62102;SDS011;48077;48.104;11.702;2023-03-19T15:48:45;13.05;;;2.28;;
62102;SDS011;48077;48.104;11.702;2023-03-19T15:51:12;8.10;;;3.03;;
62102;SDS011;48077;48.104;11.702;2023-03-19T15:53:38;4.03;;;1.88;;